Weather reports worldwide

Advertisment
El Arenosillo, Spain (8384): temperature & dewpoint: 04.07.2020 11:00:00 - 10.07.2020 11:00:00 (CEST)El Arenosillo, Spain (8384): wind speed & gusts: 04.07.2020 11:00:00 - 10.07.2020 11:00:00 (CEST)El Arenosillo, Spain (8384): wind direction: 04.07.2020 11:00:00 - 10.07.2020 11:00:00 (CEST)El Arenosillo, Spain (8384): reduced air pressure: 04.07.2020 11:00:00 - 10.07.2020 11:00:00 (CEST)El Arenosillo, Spain (8384): precipitation: 04.07.2020 11:00:00 - 10.07.2020 11:00:00 (CEST)
Date & Time tt [°C] td [°C] ff [km/h] ff [kn] fx [km/h] fx [kn] dd ppp [hPa] rr [mm]
10.07.2020 11:00:00 - - - - - - - - -
10.07.2020 10:00:00 23,3 20,1 6 3 12 6 SSW 1014,4 0,0
10.07.2020 09:00:00 22,8 20,5 8 4 11 6 SSW 1014,1 0,0
10.07.2020 08:00:00 22,2 20,7 8 4 15 8 SW 1013,8 -
10.07.2020 07:00:00 21,9 20,5 8 4 14 8 SSW 1013,6 0,0
10.07.2020 06:00:00 21,6 19,9 5 3 13 7 S 1013,9 0,0
10.07.2020 05:00:00 21,8 20,1 10 6 16 9 S 1013,7 0,0
10.07.2020 04:00:00 22,4 19,9 5 3 12 7 SSW 1014,1 0,0
10.07.2020 03:00:00 21,1 19,6 7 4 12 7 SSW 1014,4 0,0
10.07.2020 02:00:00 18,7 17,2 0 0 3 1 N 1014,7 -
10.07.2020 01:00:00 19,3 17,5 0 0 6 3 N 1015,0 0,0
10.07.2020 00:00:00 20,7 18,6 4 2 14 8 NNE 1015,0 0,0
09.07.2020 23:00:00 21,1 18,8 4 2 16 9 W 1014,5 0,0
09.07.2020 22:00:00 21,7 19,1 9 5 17 9 W 1014,0 0,0
09.07.2020 21:00:00 23,0 18,3 6 3 16 8 WSW 1013,9 0,0
09.07.2020 20:00:00 23,4 17,6 12 7 19 10 SW 1014,3 -
09.07.2020 19:00:00 24,2 17,5 13 7 18 10 SW 1014,3 0,0
09.07.2020 18:00:00 24,6 17,1 12 6 17 9 SW 1015,0 0,0
09.07.2020 17:00:00 24,2 17,0 12 7 18 10 SSW 1015,4 0,0
09.07.2020 16:00:00 24,2 16,7 13 7 18 10 SSW 1016,2 0,0
09.07.2020 15:00:00 24,7 16,4 10 5 18 10 SSW 1016,5 0,0
09.07.2020 14:00:00 24,4 16,4 10 6 18 10 S 1016,9 -
09.07.2020 13:00:00 24,0 16,6 10 5 18 10 S 1017,1 0,0
09.07.2020 12:00:00 23,9 16,9 10 5 19 10 S 1016,8 0,0
09.07.2020 11:00:00 23,4 17,4 12 6 24 13 S 1016,7 0,0
09.07.2020 10:00:00 22,7 18,5 13 7 24 13 S 1016,1 0,0
09.07.2020 09:00:00 21,7 18,5 12 6 21 11 SSE 1015,5 0,0
09.07.2020 08:00:00 21,0 18,5 10 5 23 12 SSE 1015,2 -
09.07.2020 07:00:00 20,9 18,8 12 6 26 14 SSE 1014,9 0,0
09.07.2020 06:00:00 20,7 18,5 9 5 21 11 SE 1014,5 0,0
09.07.2020 05:00:00 20,8 18,9 10 5 21 12 SSE 1014,5 0,0
09.07.2020 04:00:00 - - - - - - - - -
09.07.2020 03:00:00 - - - - - - - - -
09.07.2020 02:00:00 - - - - - - - - -
09.07.2020 01:00:00 - - - - - - - - -
09.07.2020 00:00:00 - - - - - - - - -
08.07.2020 23:00:00 - - - - - - - - -
08.07.2020 22:00:00 - - - - - - - - -
08.07.2020 21:00:00 - - - - - - - - -
08.07.2020 20:00:00 - - - - - - - - -
08.07.2020 19:00:00 25,3 19,2 11 6 21 11 SW 1012,7 0,0
08.07.2020 18:00:00 25,3 18,8 13 7 24 13 SW 1013,2 0,0
08.07.2020 17:00:00 26,2 19,6 16 9 30 16 SW 1013,5 0,0
08.07.2020 16:00:00 27,0 19,6 15 8 27 14 SW 1013,3 0,0
08.07.2020 15:00:00 27,3 18,6 15 8 22 12 SW 1013,5 0,0
08.07.2020 14:00:00 27,0 18,5 8 4 23 13 WSW 1013,6 -
08.07.2020 13:00:00 25,7 18,4 16 9 25 13 W 1013,4 0,0
08.07.2020 12:00:00 24,5 18,5 14 7 23 12 W 1013,2 0,0
08.07.2020 11:00:00 26,5 18,1 6 4 16 9 W 1012,8 0,0
08.07.2020 10:00:00 25,1 15,4 8 5 16 9 NW 1012,1 0,0
08.07.2020 09:00:00 23,2 14,7 8 4 14 7 NW 1011,8 0,0
08.07.2020 08:00:00 23,2 12,8 6 3 14 8 NW 1010,9 -
08.07.2020 07:00:00 23,9 10,5 8 4 18 10 NNW 1010,6 0,0
08.07.2020 06:00:00 24,8 11,3 10 5 22 12 NNW 1010,3 0,0
08.07.2020 05:00:00 25,8 11,2 11 6 20 11 NNW 1010,6 0,0
08.07.2020 04:00:00 23,8 13,1 6 4 13 7 NW 1010,6 0,0
08.07.2020 03:00:00 23,1 16,9 4 2 9 5 NNW 1011,6 0,0
08.07.2020 02:00:00 22,7 17,0 0 0 4 2 N 1012,0 -
08.07.2020 01:00:00 23,7 18,2 1 1 6 3 SE 1012,2 0,0
08.07.2020 00:00:00 25,7 18,8 4 2 10 5 W 1012,5 0,0
07.07.2020 23:00:00 26,4 12,4 5 3 7 4 NW 1012,0 0,0
07.07.2020 22:00:00 27,3 15,0 5 3 14 8 NW 1011,7 0,0
07.07.2020 21:00:00 28,8 16,0 10 6 24 13 WNW 1012,2 0,0
07.07.2020 20:00:00 31,2 9,9 5 3 23 12 NNW 1011,8 -
07.07.2020 19:00:00 31,0 13,3 13 7 23 13 WNW 1012,5 0,0
07.07.2020 18:00:00 31,6 9,8 7 4 21 11 W 1012,8 0,0
07.07.2020 17:00:00 35,8 8,5 6 3 10 5 S 1012,8 0,0
07.07.2020 16:00:00 33,4 10,6 5 3 9 5 SW 1013,6 0,0
07.07.2020 15:00:00 32,2 9,0 5 3 16 8 SW 1014,3 0,0
07.07.2020 14:00:00 32,4 11,6 5 3 11 6 SW 1014,9 -
07.07.2020 13:00:00 31,6 10,9 5 3 14 8 WSW 1014,9 0,0
07.07.2020 12:00:00 30,0 12,0 5 3 11 6 WSW 1015,1 0,0
07.07.2020 11:00:00 28,6 12,8 5 3 12 7 W 1014,4 0,0
07.07.2020 10:00:00 27,7 13,3 0 0 0 0 N 1013,9 0,0
07.07.2020 09:00:00 24,3 16,8 0 0 0 0 N 1013,7 0,0
07.07.2020 08:00:00 20,5 18,6 0 0 2 1 N 1013,4 -
07.07.2020 07:00:00 19,8 17,9 0 0 0 0 N 1013,2 0,0
07.07.2020 06:00:00 20,2 17,4 0 0 5 3 N 1013,1 0,0
07.07.2020 05:00:00 21,5 18,7 1 0 5 3 SE 1013,3 0,0
07.07.2020 04:00:00 23,0 19,6 2 1 9 5 SE 1013,4 0,0
07.07.2020 03:00:00 23,0 19,8 4 2 9 5 SSE 1013,6 0,0
07.07.2020 02:00:00 21,9 15,0 0 0 3 2 N 1013,7 -
07.07.2020 01:00:00 23,2 14,7 0 0 4 2 N 1014,2 0,0
07.07.2020 00:00:00 25,8 14,9 3 1 14 8 W 1014,3 0,0
06.07.2020 23:00:00 27,1 12,7 6 3 15 8 NW 1014,0 0,0
06.07.2020 22:00:00 27,4 13,0 8 4 18 10 WNW 1013,8 0,0
06.07.2020 21:00:00 28,3 14,5 8 4 21 11 WNW 1013,6 0,0
06.07.2020 20:00:00 28,6 14,8 12 7 23 12 WNW 1013,9 -
06.07.2020 19:00:00 27,4 17,5 16 9 24 13 WNW 1014,1 0,0
06.07.2020 18:00:00 27,2 19,8 14 7 23 12 W 1014,5 0,0
06.07.2020 17:00:00 27,7 19,0 10 5 22 12 W 1014,9 0,0
06.07.2020 16:00:00 28,5 18,0 12 7 20 11 W 1015,1 0,0
06.07.2020 15:00:00 29,0 20,2 8 4 18 10 W 1015,7 0,0
06.07.2020 14:00:00 29,2 18,9 7 4 16 9 WSW 1016,2 -
06.07.2020 13:00:00 28,8 17,1 8 4 15 8 WSW 1016,3 0,0
06.07.2020 12:00:00 28,7 16,3 6 3 13 7 SW 1016,1 0,0
06.07.2020 11:00:00 28,0 16,6 6 3 13 7 WSW 1016,1 0,0
06.07.2020 10:00:00 28,2 14,8 5 3 11 6 N 1015,9 0,0
06.07.2020 09:00:00 24,8 15,2 6 3 9 5 N 1015,9 0,0
06.07.2020 08:00:00 21,8 17,6 5 3 9 5 N 1015,7 -
06.07.2020 07:00:00 20,5 17,5 4 2 7 4 N 1015,5 0,0
06.07.2020 06:00:00 20,3 17,7 3 2 7 4 NNW 1015,2 0,0
06.07.2020 05:00:00 21,0 18,5 4 2 6 4 WNW 1015,5 0,0
06.07.2020 04:00:00 22,6 19,6 3 2 8 4 W 1015,7 0,0
06.07.2020 03:00:00 23,2 20,9 4 2 9 5 S 1016,3 0,0
06.07.2020 02:00:00 23,4 20,0 3 2 8 5 S 1016,4 -
06.07.2020 01:00:00 23,4 16,9 4 2 8 4 WSW 1016,6 0,0
06.07.2020 00:00:00 24,3 16,8 6 3 11 6 NW 1016,5 0,0
05.07.2020 23:00:00 24,9 17,1 5 3 13 7 NNW 1015,9 0,0
05.07.2020 22:00:00 24,4 18,8 10 5 23 12 WNW 1015,7 0,0
05.07.2020 21:00:00 26,2 19,8 6 4 18 10 WNW 1015,4 0,0
05.07.2020 20:00:00 25,9 20,3 11 6 21 11 W 1015,2 -
05.07.2020 19:00:00 26,9 20,5 12 7 21 11 W 1015,8 0,0
05.07.2020 18:00:00 27,3 20,7 15 8 22 12 W 1016,1 0,0
05.07.2020 17:00:00 29,0 20,2 13 7 21 11 W 1016,5 0,0
05.07.2020 16:00:00 30,8 19,5 6 4 15 8 SW 1016,5 0,0
05.07.2020 15:00:00 30,2 19,6 6 3 13 7 WSW 1016,7 0,0
05.07.2020 14:00:00 29,2 20,1 6 3 13 7 WSW 1017,4 -
05.07.2020 13:00:00 29,2 17,7 6 4 13 7 WSW 1017,5 0,0
05.07.2020 12:00:00 28,7 17,2 6 3 16 9 WSW 1017,6 0,0
05.07.2020 11:00:00 30,4 16,0 5 3 13 7 E 1017,8 0,0
05.07.2020 10:00:00 27,9 15,2 5 3 11 6 NE 1017,8 0,0
05.07.2020 09:00:00 24,2 15,2 6 3 10 5 NE 1017,5 0,0
05.07.2020 08:00:00 21,1 14,7 6 4 11 6 NE 1017,0 -
05.07.2020 07:00:00 20,2 15,2 6 3 9 5 N 1016,8 0,0
05.07.2020 06:00:00 18,5 15,7 4 2 6 3 N 1016,7 0,0
05.07.2020 05:00:00 18,6 16,0 3 1 4 2 NNW 1016,6 0,0
05.07.2020 04:00:00 19,0 16,2 0 0 0 0 N 1017,0 0,0
05.07.2020 03:00:00 20,0 16,8 0 0 4 2 N 1017,5 0,0
05.07.2020 02:00:00 21,5 17,7 0 0 11 6 N 1018,1 -
05.07.2020 01:00:00 22,8 19,8 0 0 9 5 E 1018,6 0,0
05.07.2020 00:00:00 23,3 19,1 2 1 10 5 W 1018,1 0,0
04.07.2020 23:00:00 24,2 19,5 5 3 14 8 WNW 1017,4 0,0
04.07.2020 22:00:00 24,2 19,1 8 5 19 11 WNW 1016,8 0,0
04.07.2020 21:00:00 25,3 19,4 9 5 18 10 WNW 1016,5 0,0
04.07.2020 20:00:00 25,5 20,1 11 6 21 11 W 1016,7 -
04.07.2020 19:00:00 27,2 19,8 11 6 23 13 W 1016,8 0,0
04.07.2020 18:00:00 27,8 19,3 13 7 24 13 W 1017,3 0,0
04.07.2020 17:00:00 27,4 19,5 14 8 24 13 W 1017,9 0,0
04.07.2020 16:00:00 26,1 20,0 13 7 23 12 WNW 1018,8 0,0
04.07.2020 15:00:00 25,2 21,1 13 7 18 10 W 1019,1 0,0
04.07.2020 14:00:00 26,7 20,3 6 4 14 7 SW 1020,1 -
04.07.2020 13:00:00 26,2 19,3 7 4 14 8 SW 1020,4 0,0
04.07.2020 12:00:00 25,4 18,3 10 5 16 9 S 1020,4 0,0
04.07.2020 11:00:00 25,9 18,3 10 5 17 9 SSE 1020,0 0,0

tt = temperature
td = dewpoint
ff = wind speed
fx = gusts
dd = wind direction
ppp = reduced air pressure
rr = precipitation

Next stations